createdAt,value
2019-03-10T00:00:20.497Z,995.95
2019-03-10T00:01:20.516Z,995.93
2019-03-10T00:02:20.534Z,995.9
2019-03-10T00:03:20.552Z,995.92
2019-03-10T00:04:20.572Z,995.9
2019-03-10T00:05:20.589Z,995.91
2019-03-10T00:06:20.609Z,995.88
2019-03-10T00:07:20.627Z,995.94
2019-03-10T00:08:20.645Z,995.88
2019-03-10T00:09:20.664Z,995.89
2019-03-10T00:10:20.682Z,995.91
2019-03-10T00:11:20.701Z,995.9
2019-03-10T00:12:20.724Z,995.87
2019-03-10T00:13:20.737Z,995.89
2019-03-10T00:14:20.756Z,995.94
2019-03-10T00:15:20.775Z,995.92
2019-03-10T00:16:20.792Z,995.95
2019-03-10T00:17:20.812Z,996
2019-03-10T00:18:20.831Z,995.98
2019-03-10T00:19:20.849Z,996.04
2019-03-10T00:20:20.867Z,996.04
2019-03-10T00:21:20.886Z,996.04
2019-03-10T00:22:20.910Z,996.04
2019-03-10T00:23:20.926Z,996.07
2019-03-10T00:24:20.943Z,996.07
2019-03-10T00:25:21.009Z,996.05
2019-03-10T00:26:21.184Z,996.05
2019-03-10T00:27:21.003Z,996.02
2019-03-10T00:28:21.017Z,995.98
2019-03-10T00:29:21.037Z,995.99
2019-03-10T00:30:21.053Z,995.92
2019-03-10T00:31:21.076Z,995.95
2019-03-10T00:32:21.101Z,995.95
2019-03-10T00:33:21.113Z,995.94
2019-03-10T00:34:21.126Z,995.92
2019-03-10T00:35:21.144Z,995.92
2019-03-10T00:36:21.164Z,995.91
2019-03-10T00:37:21.183Z,995.88
2019-03-10T00:38:21.200Z,995.83
2019-03-10T00:39:21.218Z,995.85
2019-03-10T00:40:21.245Z,995.84
2019-03-10T00:41:21.255Z,995.76
2019-03-10T00:42:21.275Z,995.7
2019-03-10T00:43:21.292Z,995.73
2019-03-10T00:44:21.312Z,995.72
2019-03-10T00:45:21.330Z,995.72
2019-03-10T00:46:21.348Z,995.73
2019-03-10T00:47:21.368Z,995.7
2019-03-10T00:48:21.386Z,995.66
2019-03-10T00:49:21.404Z,995.67
2019-03-10T00:50:21.422Z,995.69
2019-03-10T00:51:21.441Z,995.63
2019-03-10T00:52:21.460Z,995.7
2019-03-10T00:53:21.478Z,995.69
2019-03-10T00:54:21.498Z,995.72
2019-03-10T00:55:21.515Z,995.65
2019-03-10T00:56:21.534Z,995.61
2019-03-10T00:57:21.553Z,995.64
2019-03-10T00:58:21.571Z,995.64
2019-03-10T00:59:21.591Z,995.64
2019-03-10T01:00:21.758Z,995.6
2019-03-10T01:01:21.627Z,995.56
2019-03-10T01:02:21.646Z,995.59
2019-03-10T01:03:21.664Z,995.54
2019-03-10T01:04:21.682Z,995.55
2019-03-10T01:05:21.704Z,995.57
2019-03-10T01:06:21.721Z,995.5
2019-03-10T01:07:21.740Z,995.52
2019-03-10T01:08:21.756Z,995.47
2019-03-10T01:09:21.778Z,995.49
2019-03-10T01:10:21.797Z,995.53
2019-03-10T01:11:21.813Z,995.48
2019-03-10T01:12:21.832Z,995.43
2019-03-10T01:13:21.850Z,995.43
2019-03-10T01:14:21.869Z,995.38
2019-03-10T01:15:21.886Z,995.42
2019-03-10T01:16:21.907Z,995.45
2019-03-10T01:17:21.925Z,995.34
2019-03-10T01:18:21.942Z,995.37
2019-03-10T01:19:21.961Z,995.29
2019-03-10T01:20:21.980Z,995.32
2019-03-10T01:21:21.998Z,995.29
2019-03-10T01:22:22.016Z,995.32
2019-03-10T01:23:22.037Z,995.34
2019-03-10T01:24:22.054Z,995.28
2019-03-10T01:25:22.072Z,995.22
2019-03-10T01:26:22.089Z,995.21
2019-03-10T01:27:22.111Z,995.18
2019-03-10T01:28:22.129Z,995.15
2019-03-10T01:29:22.146Z,995.09
2019-03-10T01:30:22.165Z,995.07
2019-03-10T01:31:22.184Z,995.01
2019-03-10T01:32:22.201Z,995.04
2019-03-10T01:33:22.220Z,994.99
2019-03-10T01:34:22.239Z,994.98
2019-03-10T01:35:22.257Z,994.94
2019-03-10T01:36:22.276Z,994.9
2019-03-10T01:37:22.294Z,994.87
2019-03-10T01:38:22.313Z,994.83
2019-03-10T01:39:22.331Z,994.8
2019-03-10T01:40:22.349Z,994.82
2019-03-10T01:41:22.368Z,994.75
2019-03-10T01:42:22.387Z,994.77
2019-03-10T01:43:22.404Z,994.8
2019-03-10T01:44:22.443Z,994.73
2019-03-10T01:45:22.442Z,994.75
2019-03-10T01:46:22.462Z,994.77
2019-03-10T01:47:22.479Z,994.73
2019-03-10T01:48:22.498Z,994.71
2019-03-10T01:49:22.516Z,994.67
2019-03-10T01:50:22.536Z,994.6
2019-03-10T01:51:22.553Z,994.62
2019-03-10T01:52:22.572Z,994.58
2019-03-10T01:53:25.668Z,994.52
2019-03-10T01:54:22.727Z,994.59
2019-03-10T01:55:22.628Z,994.55
2019-03-10T01:56:22.648Z,994.53
2019-03-10T01:57:22.664Z,994.5
2019-03-10T01:58:22.683Z,994.5
2019-03-10T01:59:22.704Z,994.51
2019-03-10T02:00:22.726Z,994.45
2019-03-10T02:01:22.739Z,994.42
2019-03-10T02:02:25.406Z,994.39
2019-03-10T02:03:22.775Z,994.42
2019-03-10T02:04:22.795Z,994.34
2019-03-10T02:05:22.812Z,994.32
2019-03-10T02:06:22.831Z,994.29
2019-03-10T02:07:22.852Z,994.25
2019-03-10T02:08:22.869Z,994.29
2019-03-10T02:09:22.887Z,994.24
2019-03-10T02:10:22.905Z,994.24
2019-03-10T02:11:22.925Z,994.24
2019-03-10T02:12:22.942Z,994.23
2019-03-10T02:13:22.960Z,994.24
2019-03-10T02:14:22.980Z,994.26
2019-03-10T02:15:23.016Z,994.25
2019-03-10T02:16:23.015Z,994.24
2019-03-10T02:17:23.034Z,994.18
2019-03-10T02:18:23.051Z,994.18
2019-03-10T02:19:23.072Z,994.15
2019-03-10T02:20:23.091Z,994.05
2019-03-10T02:21:23.108Z,994.08
2019-03-10T02:22:23.126Z,994.07
2019-03-10T02:23:23.151Z,994.02
2019-03-10T02:24:24.168Z,994.06
2019-03-10T02:25:23.184Z,994.03
2019-03-10T02:26:23.199Z,994.02
2019-03-10T02:27:23.218Z,994.03
2019-03-10T02:28:23.237Z,994.02
2019-03-10T02:29:23.255Z,993.98
2019-03-10T02:30:23.276Z,994
2019-03-10T02:31:23.292Z,993.94
2019-03-10T02:32:23.315Z,993.94
2019-03-10T02:33:23.331Z,993.87
2019-03-10T02:34:23.347Z,993.85
2019-03-10T02:35:23.367Z,993.86
2019-03-10T02:36:23.386Z,993.81
2019-03-10T02:37:23.404Z,993.82
2019-03-10T02:38:23.421Z,993.82
2019-03-10T02:39:23.439Z,993.73
2019-03-10T02:40:23.466Z,993.79
2019-03-10T02:41:23.479Z,993.68
2019-03-10T02:42:23.496Z,993.66
2019-03-10T02:43:23.515Z,993.6
2019-03-10T02:44:23.535Z,993.56
2019-03-10T02:45:23.557Z,993.57
2019-03-10T02:46:23.571Z,993.55
2019-03-10T02:47:23.588Z,993.54
2019-03-10T02:48:23.628Z,993.49
2019-03-10T02:49:23.624Z,993.46
2019-03-10T02:50:23.642Z,993.48
2019-03-10T02:51:23.664Z,993.5
2019-03-10T02:52:23.768Z,993.49
2019-03-10T02:53:23.701Z,993.46
2019-03-10T02:54:23.722Z,993.4
2019-03-10T02:55:23.737Z,993.39
2019-03-10T02:56:23.757Z,993.36
2019-03-10T02:57:23.772Z,993.29
2019-03-10T02:58:23.790Z,993.32
2019-03-10T02:59:23.809Z,993.28
2019-03-10T03:00:23.828Z,993.29
2019-03-10T03:01:23.847Z,993.3
2019-03-10T03:02:23.865Z,993.35
2019-03-10T03:03:23.884Z,993.32
2019-03-10T03:04:23.902Z,993.27
2019-03-10T03:05:23.944Z,993.29
2019-03-10T03:06:23.939Z,993.2
2019-03-10T03:07:23.956Z,993.21
2019-03-10T03:08:23.976Z,993.22
2019-03-10T03:09:24.003Z,993.2
2019-03-10T03:10:24.011Z,993.15
2019-03-10T03:11:24.030Z,993.1
2019-03-10T03:12:24.050Z,993.11
2019-03-10T03:13:24.067Z,993.09
2019-03-10T03:14:24.088Z,993.12
2019-03-10T03:15:24.104Z,993.09
2019-03-10T03:16:24.123Z,993.08
2019-03-10T03:17:24.142Z,993.05
2019-03-10T03:18:24.160Z,993.03
2019-03-10T03:19:24.176Z,993
2019-03-10T03:20:24.196Z,992.95
2019-03-10T03:21:24.215Z,992.95
2019-03-10T03:22:24.235Z,992.91
2019-03-10T03:23:24.250Z,992.86
2019-03-10T03:24:24.271Z,992.86
2019-03-10T03:25:24.297Z,992.83
2019-03-10T03:26:24.306Z,992.85
2019-03-10T03:27:24.326Z,992.79
2019-03-10T03:28:24.345Z,992.82
2019-03-10T03:29:24.361Z,992.84
2019-03-10T03:30:24.382Z,992.78
2019-03-10T03:31:24.401Z,992.76
2019-03-10T03:32:24.417Z,992.7
2019-03-10T03:33:24.436Z,992.72
2019-03-10T03:34:24.454Z,992.8
2019-03-10T03:35:24.473Z,992.7
2019-03-10T03:36:24.491Z,992.75
2019-03-10T03:37:24.558Z,992.67
2019-03-10T03:38:24.527Z,992.67
2019-03-10T03:39:24.556Z,992.63
2019-03-10T03:40:24.564Z,992.66
2019-03-10T03:41:24.590Z,992.66
2019-03-10T03:42:24.600Z,992.66
2019-03-10T03:43:24.624Z,992.61
2019-03-10T03:44:24.645Z,992.59
2019-03-10T03:45:24.658Z,992.57
2019-03-10T03:46:24.678Z,992.58
2019-03-10T03:47:24.694Z,992.53
2019-03-10T03:48:24.711Z,992.54
2019-03-10T03:49:24.736Z,992.55
2019-03-10T03:50:24.747Z,992.53
2019-03-10T03:51:24.765Z,992.56
2019-03-10T03:52:24.785Z,992.52
2019-03-10T03:53:24.801Z,992.48
2019-03-10T03:54:24.825Z,992.45
2019-03-10T03:55:24.847Z,992.4
2019-03-10T03:56:24.856Z,992.36
2019-03-10T03:57:24.875Z,992.34
2019-03-10T03:58:24.895Z,992.29
2019-03-10T03:59:24.912Z,992.32
2019-03-10T04:00:24.932Z,992.28
2019-03-10T04:01:24.950Z,992.28
2019-03-10T04:02:24.972Z,992.27
2019-03-10T04:03:24.984Z,992.23
2019-03-10T04:04:25.004Z,992.24
2019-03-10T04:05:25.022Z,992.21
2019-03-10T04:06:25.040Z,992.18
2019-03-10T04:07:25.058Z,992.14
2019-03-10T04:08:25.076Z,992.15
2019-03-10T04:09:25.096Z,992.1
2019-03-10T04:10:25.117Z,992.04
2019-03-10T04:11:25.137Z,992.08
2019-03-10T04:12:25.151Z,992.04
2019-03-10T04:13:25.169Z,992.03
2019-03-10T04:14:25.190Z,992.08
2019-03-10T04:15:25.238Z,992.04
2019-03-10T04:16:25.226Z,992.01
2019-03-10T04:17:25.242Z,991.96
2019-03-10T04:18:25.260Z,991.97
2019-03-10T04:19:25.289Z,991.86
2019-03-10T04:20:25.295Z,991.91
2019-03-10T04:21:25.324Z,991.86
2019-03-10T04:22:25.335Z,991.88
2019-03-10T04:23:25.362Z,991.89
2019-03-10T04:24:25.374Z,991.88
2019-03-10T04:25:25.392Z,991.88
2019-03-10T04:26:25.411Z,991.86
2019-03-10T04:27:25.427Z,991.81
2019-03-10T04:28:25.444Z,991.84
2019-03-10T04:29:25.485Z,991.78
2019-03-10T04:30:25.484Z,991.76
2019-03-10T04:31:25.548Z,991.73
2019-03-10T04:32:25.517Z,991.74
2019-03-10T04:33:25.537Z,991.66
2019-03-10T04:34:25.554Z,991.65
2019-03-10T04:35:25.572Z,991.7
2019-03-10T04:36:25.590Z,991.63
2019-03-10T04:37:25.609Z,991.63
2019-03-10T04:38:25.629Z,991.57
2019-03-10T04:39:25.645Z,991.56
2019-03-10T04:40:25.663Z,991.55
2019-03-10T04:41:25.680Z,991.53
2019-03-10T04:42:25.699Z,991.48
2019-03-10T04:43:25.719Z,991.5
2019-03-10T04:44:25.739Z,991.42
2019-03-10T04:45:25.755Z,991.39
2019-03-10T04:46:25.774Z,991.33
2019-03-10T04:47:25.791Z,991.35
2019-03-10T04:48:25.810Z,991.35
2019-03-10T04:49:25.829Z,991.4
2019-03-10T04:50:25.846Z,991.36
2019-03-10T04:51:25.865Z,991.4
2019-03-10T04:52:25.884Z,991.37
2019-03-10T04:53:25.901Z,991.37
2019-03-10T04:54:25.921Z,991.38
2019-03-10T04:55:25.939Z,991.37
2019-03-10T04:56:25.955Z,991.38
2019-03-10T04:57:25.975Z,991.33
2019-03-10T04:58:25.992Z,991.34
2019-03-10T04:59:26.014Z,991.36
2019-03-10T05:00:26.029Z,991.27
2019-03-10T05:01:26.046Z,991.37
2019-03-10T05:02:26.066Z,991.27
2019-03-10T05:03:26.086Z,991.27
2019-03-10T05:04:26.109Z,991.25
2019-03-10T05:05:26.126Z,991.24
2019-03-10T05:06:26.141Z,991.16
2019-03-10T05:07:26.158Z,991.15
2019-03-10T05:08:26.175Z,991.19
2019-03-10T05:09:26.193Z,991.13
2019-03-10T05:10:26.213Z,991.11
2019-03-10T05:11:26.232Z,991.08
2019-03-10T05:12:26.250Z,991.04
2019-03-10T05:13:26.267Z,991.02
2019-03-10T05:14:26.286Z,990.96
2019-03-10T05:15:26.303Z,990.93
2019-03-10T05:16:26.322Z,990.91
2019-03-10T05:17:26.344Z,990.9
2019-03-10T05:18:26.359Z,990.88
2019-03-10T05:19:26.378Z,990.83
2019-03-10T05:20:26.408Z,990.84
2019-03-10T05:21:26.435Z,990.78
2019-03-10T05:22:26.433Z,990.75
2019-03-10T05:23:26.451Z,990.74
2019-03-10T05:24:26.478Z,990.74
2019-03-10T05:25:26.505Z,990.75
2019-03-10T05:26:26.508Z,990.73
2019-03-10T05:27:26.526Z,990.71
2019-03-10T05:28:26.541Z,990.71
2019-03-10T05:29:26.560Z,990.67
2019-03-10T05:30:26.579Z,990.64
2019-03-10T05:31:26.596Z,990.67
2019-03-10T05:32:26.709Z,990.56
2019-03-10T05:33:26.633Z,990.57
2019-03-10T05:34:26.653Z,990.54
2019-03-10T05:35:26.671Z,990.59
2019-03-10T05:36:26.687Z,990.6
2019-03-10T05:37:26.705Z,990.59
2019-03-10T05:38:26.727Z,990.56
2019-03-10T05:39:26.743Z,990.49
2019-03-10T05:40:26.761Z,990.46
2019-03-10T05:41:26.779Z,990.45
2019-03-10T05:42:26.798Z,990.47
2019-03-10T05:43:26.816Z,990.43
2019-03-10T05:44:26.835Z,990.38
2019-03-10T05:45:26.855Z,990.36
2019-03-10T05:46:26.873Z,990.29
2019-03-10T05:47:26.891Z,990.31
2019-03-10T05:48:26.909Z,990.3
2019-03-10T05:49:26.928Z,990.29
2019-03-10T05:50:26.947Z,990.24
2019-03-10T05:51:26.963Z,990.23
2019-03-10T05:52:26.982Z,990.24
2019-03-10T05:53:27.003Z,990.23
2019-03-10T05:54:27.018Z,990.18
2019-03-10T05:55:27.035Z,990.18
2019-03-10T05:56:27.055Z,990.13
2019-03-10T05:57:27.073Z,990.1
2019-03-10T05:58:27.090Z,990.06
2019-03-10T05:59:27.109Z,990.07
2019-03-10T06:00:27.128Z,990.05
2019-03-10T06:01:27.148Z,990.06
2019-03-10T06:02:27.165Z,990.04
2019-03-10T06:03:27.184Z,989.97
2019-03-10T06:04:27.200Z,989.95
2019-03-10T06:05:27.219Z,989.93
2019-03-10T06:06:27.236Z,989.91
2019-03-10T06:07:27.259Z,989.88
2019-03-10T06:08:27.273Z,989.88
2019-03-10T06:09:27.290Z,989.82
2019-03-10T06:10:27.309Z,989.86
2019-03-10T06:11:27.328Z,989.83
2019-03-10T06:12:27.346Z,989.8
2019-03-10T06:13:27.365Z,989.76
2019-03-10T06:14:27.382Z,989.74
2019-03-10T06:15:27.403Z,989.74
2019-03-10T06:16:27.419Z,989.73
2019-03-10T06:17:27.437Z,989.7
2019-03-10T06:18:27.456Z,989.68
2019-03-10T06:19:27.473Z,989.65
2019-03-10T06:20:27.491Z,989.62
2019-03-10T06:21:27.511Z,989.58
2019-03-10T06:22:27.528Z,989.6
2019-03-10T06:23:27.546Z,989.55
2019-03-10T06:24:27.566Z,989.51
2019-03-10T06:25:27.582Z,989.45
2019-03-10T06:26:27.602Z,989.46
2019-03-10T06:27:27.619Z,989.46
2019-03-10T06:28:27.637Z,989.41
2019-03-10T06:29:27.654Z,989.46
2019-03-10T06:30:27.674Z,989.47
2019-03-10T06:31:27.694Z,989.44
2019-03-10T06:32:27.710Z,989.45
2019-03-10T06:33:27.728Z,989.39
2019-03-10T06:34:27.747Z,989.34
2019-03-10T06:35:27.765Z,989.24
2019-03-10T06:36:27.783Z,989.25
2019-03-10T06:37:27.802Z,989.19
2019-03-10T06:38:27.819Z,989.18
2019-03-10T06:39:27.839Z,989.09
2019-03-10T06:40:31.916Z,989.1
2019-03-10T06:41:27.875Z,989.08
2019-03-10T06:42:27.893Z,989.07
2019-03-10T06:43:27.910Z,989.06
2019-03-10T06:44:27.929Z,989.05
2019-03-10T06:45:27.946Z,989.04
2019-03-10T06:46:27.967Z,988.94
2019-03-10T06:47:27.983Z,988.85
2019-03-10T06:48:28.002Z,988.87
2019-03-10T06:49:28.020Z,988.82
2019-03-10T06:50:28.038Z,988.84
2019-03-10T06:51:28.057Z,988.78
2019-03-10T06:52:28.074Z,988.78
2019-03-10T06:53:28.092Z,988.76
2019-03-10T06:54:28.110Z,988.78
2019-03-10T06:55:28.129Z,988.77
2019-03-10T06:56:28.146Z,988.74
2019-03-10T06:57:28.166Z,988.73
2019-03-10T06:58:28.192Z,988.63
2019-03-10T06:59:28.202Z,988.62
2019-03-10T07:00:28.220Z,988.59
2019-03-10T07:01:28.239Z,988.6
2019-03-10T07:02:28.262Z,988.53
2019-03-10T07:03:28.276Z,988.5
2019-03-10T07:04:28.292Z,988.46
2019-03-10T07:05:28.309Z,988.37
2019-03-10T07:06:28.328Z,988.27
2019-03-10T07:07:28.347Z,988.27
2019-03-10T07:08:28.370Z,988.19
2019-03-10T07:09:28.383Z,988.16
2019-03-10T07:10:28.401Z,988.17
2019-03-10T07:11:28.419Z,988.07
2019-03-10T07:12:28.437Z,988.07
2019-03-10T07:13:28.455Z,988.03
2019-03-10T07:14:28.476Z,987.98
2019-03-10T07:15:28.492Z,987.94
2019-03-10T07:16:28.520Z,987.92
2019-03-10T07:17:28.528Z,987.95
2019-03-10T07:18:28.546Z,987.95
2019-03-10T07:19:28.566Z,988.02
2019-03-10T07:20:28.583Z,988.03
2019-03-10T07:21:28.603Z,988.07
2019-03-10T07:22:28.624Z,988
2019-03-10T07:23:28.638Z,988.01
2019-03-10T07:24:28.655Z,987.95
2019-03-10T07:25:28.700Z,987.97
2019-03-10T07:26:28.697Z,987.97
2019-03-10T07:27:28.711Z,987.94
2019-03-10T07:28:28.729Z,987.89
2019-03-10T07:29:28.748Z,987.87
2019-03-10T07:30:28.765Z,987.79
2019-03-10T07:31:28.784Z,987.76
2019-03-10T07:32:28.803Z,987.76
2019-03-10T07:33:28.820Z,987.71
2019-03-10T07:34:28.838Z,987.71
2019-03-10T07:35:28.906Z,987.71
2019-03-10T07:36:28.874Z,987.74
2019-03-10T07:37:28.894Z,987.77
2019-03-10T07:38:28.914Z,987.8
2019-03-10T07:39:28.951Z,987.72
2019-03-10T07:40:28.966Z,987.69
2019-03-10T07:41:28.964Z,987.73
2019-03-10T07:42:28.985Z,987.67
2019-03-10T07:43:29.001Z,987.62
2019-03-10T07:44:29.030Z,987.62
2019-03-10T07:45:29.039Z,987.58
2019-03-10T07:46:29.056Z,987.53
2019-03-10T07:47:29.074Z,987.5
2019-03-10T07:48:29.094Z,987.48
2019-03-10T07:49:29.111Z,987.45
2019-03-10T07:50:29.128Z,987.43
2019-03-10T07:51:29.149Z,987.44
2019-03-10T07:52:29.163Z,987.41
2019-03-10T07:53:29.182Z,987.37
2019-03-10T07:54:29.202Z,987.35
2019-03-10T07:55:29.220Z,987.29
2019-03-10T07:56:29.239Z,987.27
2019-03-10T07:57:29.256Z,987.24
2019-03-10T07:58:29.274Z,987.25
2019-03-10T07:59:29.293Z,987.2
2019-03-10T08:00:29.311Z,987.17
2019-03-10T08:01:29.429Z,987.14
2019-03-10T08:02:29.348Z,987.1
2019-03-10T08:03:29.363Z,987.08
2019-03-10T08:04:29.433Z,987.04
2019-03-10T08:05:29.401Z,987.02
2019-03-10T08:06:29.418Z,987.02
2019-03-10T08:07:29.438Z,986.98
2019-03-10T08:08:29.456Z,986.93
2019-03-10T08:09:29.475Z,986.95
2019-03-10T08:10:29.493Z,986.87
2019-03-10T08:11:29.511Z,986.83
2019-03-10T08:12:29.529Z,986.78
2019-03-10T08:13:29.548Z,986.71
2019-03-10T08:14:29.565Z,986.69
2019-03-10T08:15:29.584Z,986.67
2019-03-10T08:16:29.602Z,986.63
2019-03-10T08:17:29.622Z,986.6
2019-03-10T08:18:29.639Z,986.59
2019-03-10T08:19:29.660Z,986.57
2019-03-10T08:20:29.676Z,986.54
2019-03-10T08:21:29.695Z,986.49
2019-03-10T08:22:29.711Z,986.46
2019-03-10T08:23:29.732Z,986.4
2019-03-10T08:24:29.748Z,986.43
2019-03-10T08:25:29.765Z,986.39
2019-03-10T08:26:29.786Z,986.34
2019-03-10T08:27:29.803Z,986.34
2019-03-10T08:28:29.822Z,986.28
2019-03-10T08:29:29.839Z,986.29
2019-03-10T08:30:29.859Z,986.25
2019-03-10T08:31:29.927Z,986.29
2019-03-10T08:32:29.895Z,986.25
2019-03-10T08:33:29.913Z,986.23
2019-03-10T08:34:29.931Z,986.22
2019-03-10T08:35:29.951Z,986.21
2019-03-10T08:36:29.967Z,986.21
2019-03-10T08:37:29.986Z,986.17
2019-03-10T08:38:30.005Z,986.14
2019-03-10T08:39:30.028Z,986.14
2019-03-10T08:40:30.044Z,986.08
2019-03-10T08:41:30.060Z,986.06
2019-03-10T08:42:30.078Z,986.05
2019-03-10T08:43:30.247Z,986.04
2019-03-10T08:44:30.113Z,986
2019-03-10T08:45:30.137Z,985.99
2019-03-10T08:46:30.251Z,985.95
2019-03-10T08:47:30.244Z,985.87
2019-03-10T08:48:30.288Z,985.78
2019-03-10T08:49:30.264Z,985.76
2019-03-10T08:50:30.276Z,985.73
2019-03-10T08:51:30.242Z,985.72
2019-03-10T08:52:30.263Z,985.69
2019-03-10T08:53:30.280Z,985.73
2019-03-10T08:54:30.354Z,985.67
2019-03-10T08:55:30.326Z,985.6
2019-03-10T08:56:30.336Z,985.56
2019-03-10T08:57:30.359Z,985.54
2019-03-10T08:58:30.372Z,985.47
2019-03-10T08:59:30.391Z,985.49
2019-03-10T09:00:30.412Z,985.45
2019-03-10T09:01:30.429Z,985.39
2019-03-10T09:02:30.445Z,985.4
2019-03-10T09:03:30.464Z,985.41
2019-03-10T09:04:30.483Z,985.39
2019-03-10T09:05:30.500Z,985.39
2019-03-10T09:06:30.519Z,985.37
2019-03-10T09:07:30.541Z,985.31
2019-03-10T09:08:30.556Z,985.31
2019-03-10T09:09:30.574Z,985.27
2019-03-10T09:10:30.593Z,985.3
2019-03-10T09:11:30.613Z,985.29
2019-03-10T09:12:30.630Z,985.3
2019-03-10T09:13:30.646Z,985.29
2019-03-10T09:14:30.666Z,985.21
2019-03-10T09:15:30.687Z,985.22
2019-03-10T09:16:30.703Z,985.24
2019-03-10T09:17:30.721Z,985.23
2019-03-10T09:18:30.739Z,985.17
2019-03-10T09:19:30.758Z,985.17
2019-03-10T09:20:30.781Z,985.07
2019-03-10T09:21:30.794Z,985.03
2019-03-10T09:22:30.815Z,984.99
2019-03-10T09:23:30.833Z,985
2019-03-10T09:24:30.850Z,984.94
2019-03-10T09:25:30.869Z,984.93
2019-03-10T09:26:30.888Z,984.83
2019-03-10T09:27:30.904Z,984.79
2019-03-10T09:28:30.922Z,984.78
2019-03-10T09:29:30.941Z,984.83
2019-03-10T09:30:30.961Z,984.81
2019-03-10T09:31:30.979Z,984.81
2019-03-10T09:32:30.997Z,984.81
2019-03-10T09:33:31.016Z,984.7
2019-03-10T09:34:31.035Z,984.68
2019-03-10T09:35:31.051Z,984.69
2019-03-10T09:36:31.071Z,984.69
2019-03-10T09:37:31.089Z,984.62
2019-03-10T09:38:31.107Z,984.58
2019-03-10T09:39:31.127Z,984.54
2019-03-10T09:40:31.144Z,984.52
2019-03-10T09:41:31.163Z,984.49
2019-03-10T09:42:31.180Z,984.48
2019-03-10T09:43:31.199Z,984.46
2019-03-10T09:44:31.219Z,984.44
2019-03-10T09:45:31.236Z,984.41
2019-03-10T09:46:31.254Z,984.42
2019-03-10T09:47:31.273Z,984.38
2019-03-10T09:48:31.291Z,984.33
2019-03-10T09:49:31.310Z,984.3
2019-03-10T09:50:31.339Z,984.29
2019-03-10T09:51:31.346Z,984.28
2019-03-10T09:52:31.366Z,984.27
2019-03-10T09:53:31.383Z,984.21
2019-03-10T09:54:31.403Z,984.16
2019-03-10T09:55:31.420Z,984.1
2019-03-10T09:56:31.439Z,984.11
2019-03-10T09:57:31.457Z,984.1
2019-03-10T09:58:31.476Z,984.12
2019-03-10T09:59:31.495Z,984.11
2019-03-10T10:00:31.512Z,984.02
2019-03-10T10:01:31.530Z,984.02
2019-03-10T10:02:31.551Z,983.94
2019-03-10T10:03:31.569Z,983.93
2019-03-10T10:04:31.586Z,983.99
2019-03-10T10:05:31.606Z,983.89
2019-03-10T10:06:31.624Z,983.88
2019-03-10T10:07:31.643Z,983.84
2019-03-10T10:08:31.660Z,983.82
2019-03-10T10:09:31.678Z,983.8
2019-03-10T10:10:31.696Z,983.7
2019-03-10T10:11:31.716Z,983.64
2019-03-10T10:12:31.734Z,983.55
2019-03-10T10:13:31.754Z,983.5
2019-03-10T10:14:31.771Z,983.49
2019-03-10T10:15:31.790Z,983.52
2019-03-10T10:16:31.807Z,983.45
2019-03-10T10:17:31.826Z,983.54
2019-03-10T10:18:31.845Z,983.51
2019-03-10T10:19:31.864Z,983.51
2019-03-10T10:20:31.882Z,983.46
2019-03-10T10:21:31.900Z,983.46
2019-03-10T10:22:31.917Z,983.38
2019-03-10T10:23:31.938Z,983.39
2019-03-10T10:24:31.956Z,983.35
2019-03-10T10:25:31.976Z,983.32
2019-03-10T10:26:31.992Z,983.27
2019-03-10T10:27:32.018Z,983.25
2019-03-10T10:28:32.029Z,983.2
2019-03-10T10:29:32.049Z,983.18
2019-03-10T10:30:32.067Z,983.09
2019-03-10T10:31:32.087Z,983.12
2019-03-10T10:32:32.105Z,983.1
2019-03-10T10:33:32.123Z,983.11
2019-03-10T10:34:32.142Z,983.1
2019-03-10T10:35:32.159Z,983.02
2019-03-10T10:36:32.179Z,983.01
2019-03-10T10:37:32.196Z,982.96
2019-03-10T10:38:32.216Z,982.91
2019-03-10T10:39:32.235Z,982.84
2019-03-10T10:40:32.251Z,982.76
2019-03-10T10:41:32.270Z,982.7
2019-03-10T10:42:32.290Z,982.71
2019-03-10T10:43:32.308Z,982.67
2019-03-10T10:44:32.327Z,982.59
2019-03-10T10:45:32.345Z,982.58
2019-03-10T10:46:32.365Z,982.56
2019-03-10T10:47:32.383Z,982.53
2019-03-10T10:48:32.409Z,982.55
2019-03-10T10:49:32.430Z,982.53
2019-03-10T10:50:32.439Z,982.54
2019-03-10T10:51:32.455Z,982.45
2019-03-10T10:52:32.492Z,982.51
2019-03-10T10:53:32.499Z,982.47
2019-03-10T10:54:32.515Z,982.41
2019-03-10T10:55:32.534Z,982.33
2019-03-10T10:56:32.552Z,982.36
2019-03-10T10:57:32.577Z,982.3
2019-03-10T10:58:32.594Z,982.26
2019-03-10T10:59:32.609Z,982.32
2019-03-10T11:00:32.628Z,982.32
2019-03-10T11:01:32.647Z,982.31
2019-03-10T11:02:32.687Z,982.31
2019-03-10T11:03:32.683Z,982.26
2019-03-10T11:04:32.710Z,982.27
2019-03-10T11:05:32.730Z,982.3
2019-03-10T11:06:32.740Z,982.29
2019-03-10T11:07:32.768Z,982.31
2019-03-10T11:08:32.796Z,982.27
2019-03-10T11:09:32.798Z,982.31
2019-03-10T11:10:32.816Z,982.29
2019-03-10T11:11:32.835Z,982.28
2019-03-10T11:12:32.864Z,982.24
2019-03-10T11:13:32.871Z,982.23
2019-03-10T11:14:32.891Z,982.23
2019-03-10T11:15:32.912Z,982.18
2019-03-10T11:16:32.931Z,982.13
2019-03-10T11:17:32.949Z,982.11
2019-03-10T11:18:32.979Z,982.28
2019-03-10T11:19:32.986Z,982.26
2019-03-10T11:20:33.005Z,982.2
2019-03-10T11:21:33.024Z,982.19
2019-03-10T11:22:33.043Z,982.27
2019-03-10T11:23:33.062Z,982.26
2019-03-10T11:24:33.080Z,982.25
2019-03-10T11:25:33.099Z,982.28
2019-03-10T11:26:33.120Z,982.27
2019-03-10T11:27:33.137Z,982.17
2019-03-10T11:28:33.157Z,982.17
2019-03-10T11:29:33.176Z,982.15
2019-03-10T11:30:33.194Z,982.11
2019-03-10T11:31:33.213Z,982.12
2019-03-10T11:32:33.234Z,982.12
2019-03-10T11:33:33.254Z,982.15
2019-03-10T11:34:33.270Z,982.16
2019-03-10T11:35:33.311Z,982.18
2019-03-10T11:36:33.307Z,982.18
2019-03-10T11:37:33.326Z,982.19
2019-03-10T11:38:33.346Z,982.17
2019-03-10T11:39:33.368Z,982.14
2019-03-10T11:40:33.384Z,982.13
2019-03-10T11:41:34.276Z,982.18
2019-03-10T11:42:33.422Z,982.1
2019-03-10T11:43:33.440Z,982.16
2019-03-10T11:44:33.460Z,982.1
2019-03-10T11:45:33.478Z,982.12
2019-03-10T11:46:33.496Z,982.04
2019-03-10T11:47:33.515Z,982.02
2019-03-10T11:48:33.538Z,982.07
2019-03-10T11:49:33.554Z,982.07
2019-03-10T11:50:33.571Z,982.11
2019-03-10T11:51:33.592Z,982.12
2019-03-10T11:52:33.610Z,982.11
2019-03-10T11:53:33.629Z,982.03
2019-03-10T11:54:33.649Z,982.08
2019-03-10T11:55:33.667Z,982.03
2019-03-10T11:56:33.686Z,982.01
2019-03-10T11:57:33.704Z,982.02
2019-03-10T11:58:33.723Z,982.04
2019-03-10T11:59:33.742Z,982.08
2019-03-10T12:00:33.760Z,981.97
2019-03-10T12:01:33.779Z,982
2019-03-10T12:02:33.802Z,981.96
2019-03-10T12:03:33.822Z,981.97
2019-03-10T12:04:33.837Z,981.96
2019-03-10T12:05:33.856Z,981.9
2019-03-10T12:06:33.873Z,981.96
2019-03-10T12:07:33.895Z,981.95
2019-03-10T12:08:33.911Z,981.99
2019-03-10T12:09:33.931Z,981.96
2019-03-10T12:10:33.951Z,981.85
2019-03-10T12:11:33.969Z,981.87
2019-03-10T12:12:33.987Z,981.8
2019-03-10T12:13:34.008Z,981.87
2019-03-10T12:14:34.029Z,981.9
2019-03-10T12:15:34.043Z,981.77
2019-03-10T12:16:34.062Z,981.7
2019-03-10T12:17:34.086Z,981.69
2019-03-10T12:18:34.106Z,981.76
2019-03-10T12:19:34.118Z,981.66
2019-03-10T12:20:34.137Z,981.63
2019-03-10T12:21:34.157Z,981.63
2019-03-10T12:22:34.177Z,981.6
2019-03-10T12:23:34.195Z,981.55
2019-03-10T12:24:34.217Z,981.49
2019-03-10T12:25:34.239Z,981.46
2019-03-10T12:26:34.250Z,981.43
2019-03-10T12:27:34.292Z,981.43
2019-03-10T12:28:34.293Z,981.38
2019-03-10T12:29:34.307Z,981.38
2019-03-10T12:30:34.326Z,981.35
2019-03-10T12:31:34.345Z,981.27